Time;durP1;ratioP1;P1;durP2;ratioP2;P2;SDS_P1;SDS_P2;PMS_P1;PMS_P2;Temp;Humidity;BMP_temperature;BMP_pressure;BME280_temperature;BME280_humidity;BME280_pressure;Samples;Min_cycle;Max_cycle;Signal;HPM_P1;HPM_P2
2022/11/14 00:02:25;;;;;;;10.55;2.63;;;;;;;;;;5115436;28;20028;-61
2022/11/14 00:04:51;;;;;;;8.52;2.38;;;;;;;;;;5115388;28;20016;-61
2022/11/14 00:07:17;;;;;;;9.55;2.50;;;;;;;;;;5115082;28;20027;-61
2022/11/14 00:09:43;;;;;;;9.27;2.17;;;;;;;;;;5114606;28;20026;-62
2022/11/14 00:12:10;;;;;;;9.25;2.40;;;;;;;;;;5115030;28;20016;-61
2022/11/14 00:14:37;;;;;;;9.82;2.13;;;;;;;;;;5114936;28;20038;-61
2022/11/14 00:17:03;;;;;;;11.38;2.55;;;;;;;;;;5114920;28;20026;-61
2022/11/14 00:19:30;;;;;;;13.38;2.50;;;;;;;;;;5114957;28;20480;-62
2022/11/14 00:21:56;;;;;;;9.77;2.28;;;;;;;;;;5114761;28;20039;-61
2022/11/14 00:24:23;;;;;;;13.93;3.22;;;;;;;;;;5114370;28;20023;-61
2022/11/14 00:26:49;;;;;;;10.75;2.33;;;;;;;;;;5114801;28;20492;-62
2022/11/14 00:29:15;;;;;;;8.43;2.65;;;;;;;;;;5114639;28;20499;-61
2022/11/14 00:31:42;;;;;;;12.90;2.30;;;;;;;;;;5114681;28;20008;-61
2022/11/14 00:34:08;;;;;;;11.45;2.80;;;;;;;;;;5096573;28;20481;-61
2022/11/14 00:36:36;;;;;;;12.25;3.13;;;;;;;;;;5114670;28;20031;-61
2022/11/14 00:39:02;;;;;;;13.32;2.63;;;;;;;;;;5095820;28;20030;-61
2022/11/14 00:41:28;;;;;;;15.77;2.88;;;;;;;;;;5114455;28;20019;-61
2022/11/14 00:43:55;;;;;;;13.30;3.30;;;;;;;;;;5096172;28;20534;-62
2022/11/14 00:46:21;;;;;;;10.13;2.92;;;;;;;;;;5096622;28;20035;-61
2022/11/14 00:48:47;;;;;;;9.30;2.60;;;;;;;;;;5114280;28;20028;-62
2022/11/14 00:51:13;;;;;;;7.35;2.78;;;;;;;;;;5114198;28;20032;-61
2022/11/14 00:53:40;;;;;;;9.07;2.53;;;;;;;;;;5113912;28;20084;-61
2022/11/14 00:56:06;;;;;;;14.45;2.80;;;;;;;;;;5114667;28;20050;-61
2022/11/14 00:58:32;;;;;;;12.95;3.00;;;;;;;;;;5114205;28;20019;-61
2022/11/14 01:00:59;;;;;;;8.38;2.65;;;;;;;;;;5114027;28;20030;-61
2022/11/14 01:03:25;;;;;;;11.52;3.20;;;;;;;;;;5114331;28;20027;-61
2022/11/14 01:05:51;;;;;;;14.50;3.70;;;;;;;;;;5113964;28;20084;-61
2022/11/14 01:08:19;;;;;;;9.45;2.78;;;;;;;;;;5113408;28;20403;-61
2022/11/14 01:10:47;;;;;;;14.93;2.75;;;;;;;;;;5114300;28;20030;-61
2022/11/14 01:13:13;;;;;;;10.57;3.08;;;;;;;;;;5113787;28;20016;-62
2022/11/14 01:15:44;;;;;;;11.35;3.50;;;;;;;;;;5113545;28;20027;-61
2022/11/14 01:18:11;;;;;;;8.35;3.00;;;;;;;;;;5114109;28;20066;-61
2022/11/14 01:20:39;;;;;;;9.05;3.25;;;;;;;;;;5113982;28;20036;-61
2022/11/14 01:23:06;;;;;;;7.50;3.65;;;;;;;;;;5113214;28;20083;-61
2022/11/14 01:25:33;;;;;;;10.82;3.78;;;;;;;;;;5095676;28;20027;-61
2022/11/14 01:27:59;;;;;;;8.65;3.65;;;;;;;;;;5113619;28;20023;-61
2022/11/14 01:30:25;;;;;;;8.63;3.28;;;;;;;;;;5113461;28;20034;-61
2022/11/14 01:32:52;;;;;;;9.55;3.42;;;;;;;;;;5113504;28;20035;-61
2022/11/14 01:35:18;;;;;;;9.82;2.90;;;;;;;;;;5113555;28;20035;-61
2022/11/14 01:37:44;;;;;;;11.32;3.20;;;;;;;;;;5112141;28;20044;-61
2022/11/14 01:40:11;;;;;;;12.38;3.53;;;;;;;;;;5113283;28;20424;-61
2022/11/14 01:42:37;;;;;;;8.88;3.55;;;;;;;;;;5113165;28;20027;-61
2022/11/14 01:45:22;;;;;;;11.57;3.80;;;;;;;;;;5105641;28;20028;-61
2022/11/14 01:47:48;;;;;;;13.05;4.25;;;;;;;;;;5105582;28;20020;-61
2022/11/14 01:50:15;;;;;;;6.88;3.60;;;;;;;;;;5113128;28;20026;-61
2022/11/14 01:52:41;;;;;;;19.40;3.95;;;;;;;;;;5112851;28;20042;-61
2022/11/14 01:55:08;;;;;;;9.77;4.55;;;;;;;;;;5112950;28;20027;-61
2022/11/14 01:57:43;;;;;;;16.88;4.22;;;;;;;;;;5112872;28;20038;-61
2022/11/14 02:00:11;;;;;;;10.55;3.85;;;;;;;;;;5113071;28;20069;-61
2022/11/14 02:02:38;;;;;;;12.70;4.07;;;;;;;;;;5113446;28;20026;-61
2022/11/14 02:05:10;;;;;;;10.13;4.85;;;;;;;;;;5112782;28;20016;-61
2022/11/14 02:07:37;;;;;;;11.25;4.10;;;;;;;;;;5112504;28;20511;-62
2022/11/14 02:10:06;;;;;;;12.82;4.68;;;;;;;;;;5112934;28;20396;-61
2022/11/14 02:12:32;;;;;;;14.73;4.28;;;;;;;;;;5112927;28;20309;-61
2022/11/14 02:14:59;;;;;;;11.68;4.57;;;;;;;;;;5112663;28;20023;-61
2022/11/14 02:17:25;;;;;;;9.95;4.03;;;;;;;;;;5112784;28;20511;-61
2022/11/14 02:19:53;;;;;;;15.27;4.45;;;;;;;;;;5112352;28;20027;-61
2022/11/14 02:22:20;;;;;;;11.48;4.53;;;;;;;;;;5112901;28;20027;-61
2022/11/14 02:24:46;;;;;;;14.13;4.53;;;;;;;;;;5112558;28;20020;-61
2022/11/14 02:27:14;;;;;;;11.82;4.30;;;;;;;;;;5112488;28;20024;-61
2022/11/14 02:29:40;;;;;;;10.55;4.07;;;;;;;;;;5094212;28;20502;-61
2022/11/14 02:32:06;;;;;;;14.38;4.10;;;;;;;;;;5112856;28;20042;-61
2022/11/14 02:34:33;;;;;;;18.73;4.43;;;;;;;;;;5112351;28;20011;-61
2022/11/14 02:36:59;;;;;;;12.15;3.97;;;;;;;;;;5112264;28;20078;-61
2022/11/14 02:39:26;;;;;;;11.23;4.43;;;;;;;;;;5112701;28;20031;-61
2022/11/14 02:41:53;;;;;;;12.63;4.25;;;;;;;;;;5112636;28;20027;-61
2022/11/14 02:44:19;;;;;;;18.15;4.85;;;;;;;;;;5093333;28;20028;-60
2022/11/14 02:46:45;;;;;;;9.23;4.15;;;;;;;;;;5096009;28;20016;-61
2022/11/14 02:49:11;;;;;;;9.82;4.68;;;;;;;;;;5113466;28;20609;-60
2022/11/14 02:51:40;;;;;;;10.40;4.22;;;;;;;;;;5116803;28;20030;-60
2022/11/14 02:54:06;;;;;;;9.15;4.30;;;;;;;;;;5116811;28;20022;-61
2022/11/14 02:56:32;;;;;;;15.15;4.45;;;;;;;;;;5116385;28;20042;-61
2022/11/14 02:58:59;;;;;;;15.70;4.75;;;;;;;;;;5116513;28;20024;-61
2022/11/14 03:01:25;;;;;;;11.07;4.47;;;;;;;;;;5116759;28;20027;-61
2022/11/14 03:03:51;;;;;;;9.93;4.47;;;;;;;;;;5116205;28;20020;-61
2022/11/14 03:06:18;;;;;;;13.35;4.72;;;;;;;;;;5116391;28;20032;-61
2022/11/14 03:08:44;;;;;;;15.55;4.35;;;;;;;;;;5116535;28;20019;-61
2022/11/14 03:11:10;;;;;;;12.25;4.63;;;;;;;;;;5116184;28;20024;-61
2022/11/14 03:13:37;;;;;;;11.57;4.93;;;;;;;;;;5098017;28;20024;-61
2022/11/14 03:16:10;;;;;;;9.68;4.60;;;;;;;;;;5115978;28;20377;-61
2022/11/14 03:18:36;;;;;;;7.18;3.78;;;;;;;;;;5115585;28;20031;-61
2022/11/14 03:21:07;;;;;;;7.32;4.15;;;;;;;;;;5116316;28;20015;-62
2022/11/14 03:23:33;;;;;;;8.73;4.10;;;;;;;;;;5098100;28;20068;-61
2022/11/14 03:26:03;;;;;;;16.90;4.30;;;;;;;;;;5115904;28;20012;-61
2022/11/14 03:28:29;;;;;;;13.02;4.30;;;;;;;;;;5115742;28;20473;-61
2022/11/14 03:30:56;;;;;;;9.35;4.10;;;;;;;;;;5116011;28;20022;-61
2022/11/14 03:33:22;;;;;;;7.03;4.40;;;;;;;;;;5115505;28;20038;-61
2022/11/14 03:35:49;;;;;;;11.65;4.63;;;;;;;;;;5115709;28;20044;-61
2022/11/14 03:38:16;;;;;;;8.68;4.40;;;;;;;;;;5115637;28;20028;-61
2022/11/14 03:40:42;;;;;;;10.93;4.82;;;;;;;;;;5115731;28;20092;-61
2022/11/14 03:43:08;;;;;;;10.40;4.25;;;;;;;;;;5115877;28;20024;-61
2022/11/14 03:45:38;;;;;;;11.25;4.68;;;;;;;;;;5103383;28;20019;-61
2022/11/14 03:48:05;;;;;;;15.38;4.53;;;;;;;;;;5109766;28;20024;-61
2022/11/14 03:50:32;;;;;;;12.95;4.57;;;;;;;;;;5115328;28;20034;-61
2022/11/14 03:52:58;;;;;;;13.80;4.43;;;;;;;;;;5115282;28;20045;-62
2022/11/14 03:55:25;;;;;;;14.65;4.93;;;;;;;;;;5115406;28;20093;-61
2022/11/14 03:57:51;;;;;;;12.73;4.82;;;;;;;;;;5115034;28;20484;-61
2022/11/14 04:00:17;;;;;;;9.07;4.90;;;;;;;;;;5114714;28;20018;-61
2022/11/14 04:02:44;;;;;;;8.77;4.35;;;;;;;;;;5114771;28;20407;-61
2022/11/14 04:05:10;;;;;;;8.02;4.80;;;;;;;;;;5114867;28;20080;-61
2022/11/14 04:07:36;;;;;;;10.73;4.35;;;;;;;;;;5096785;28;20036;-61
2022/11/14 04:10:03;;;;;;;9.75;4.95;;;;;;;;;;5115133;28;20016;-61
2022/11/14 04:12:29;;;;;;;10.10;4.55;;;;;;;;;;5115117;28;20030;-61
2022/11/14 04:14:55;;;;;;;9.55;4.75;;;;;;;;;;5096893;28;20020;-61
2022/11/14 04:17:22;;;;;;;10.70;4.63;;;;;;;;;;5114932;28;20016;-61
2022/11/14 04:19:49;;;;;;;9.85;5.15;;;;;;;;;;5114661;28;20027;-61
2022/11/14 04:22:15;;;;;;;10.55;4.75;;;;;;;;;;5115111;28;20012;-61
2022/11/14 04:24:41;;;;;;;10.25;4.80;;;;;;;;;;5114865;28;20365;-61
2022/11/14 04:27:08;;;;;;;10.65;5.20;;;;;;;;;;5115094;28;20027;-61
2022/11/14 04:29:34;;;;;;;9.13;4.78;;;;;;;;;;5114898;28;20012;-61
2022/11/14 04:32:00;;;;;;;25.20;8.57;;;;;;;;;;5114432;28;20028;-61
2022/11/14 04:34:27;;;;;;;16.90;7.53;;;;;;;;;;5114612;28;20015;-61
2022/11/14 04:36:53;;;;;;;14.02;6.03;;;;;;;;;;5114251;28;20055;-61
2022/11/14 04:39:19;;;;;;;15.88;7.00;;;;;;;;;;5114492;28;20042;-61
2022/11/14 04:41:46;;;;;;;10.40;4.82;;;;;;;;;;5114427;28;20034;-61
2022/11/14 04:44:12;;;;;;;12.35;4.75;;;;;;;;;;5114228;28;20498;-61
2022/11/14 04:46:38;;;;;;;13.52;5.07;;;;;;;;;;5096400;28;20023;-61
2022/11/14 04:49:05;;;;;;;13.75;5.10;;;;;;;;;;5114293;28;20023;-61
2022/11/14 04:51:31;;;;;;;10.40;5.00;;;;;;;;;;5114201;28;20476;-61
2022/11/14 04:53:57;;;;;;;11.13;4.70;;;;;;;;;;5114285;28;20475;-61
2022/11/14 04:56:24;;;;;;;10.73;5.03;;;;;;;;;;5114148;28;20043;-61
2022/11/14 04:58:50;;;;;;;14.80;4.80;;;;;;;;;;5114243;28;20028;-61
2022/11/14 05:01:17;;;;;;;12.70;5.03;;;;;;;;;;5113871;28;20020;-62
2022/11/14 05:03:43;;;;;;;13.10;4.80;;;;;;;;;;5113958;28;20027;-62
2022/11/14 05:06:10;;;;;;;12.15;4.82;;;;;;;;;;5114066;28;20024;-61
2022/11/14 05:08:36;;;;;;;15.55;4.90;;;;;;;;;;5113848;28;20031;-61
2022/11/14 05:11:02;;;;;;;13.05;5.15;;;;;;;;;;5113419;28;20395;-61
2022/11/14 05:13:29;;;;;;;11.35;4.70;;;;;;;;;;5113720;28;20015;-61
2022/11/14 05:15:59;;;;;;;13.18;5.20;;;;;;;;;;5113439;28;20504;-61
2022/11/14 05:18:25;;;;;;;10.13;4.47;;;;;;;;;;5113777;28;20019;-61
2022/11/14 05:20:52;;;;;;;12.48;5.22;;;;;;;;;;5113752;28;20052;-61
2022/11/14 05:23:19;;;;;;;11.10;5.10;;;;;;;;;;5113630;28;20015;-61
2022/11/14 05:25:46;;;;;;;10.15;4.78;;;;;;;;;;5113699;28;20012;-61
2022/11/14 05:28:12;;;;;;;13.18;4.50;;;;;;;;;;5113549;28;20028;-61
2022/11/14 05:30:39;;;;;;;14.48;5.28;;;;;;;;;;5113109;28;20484;-61
2022/11/14 05:33:05;;;;;;;10.52;4.47;;;;;;;;;;5113530;28;20028;-61
2022/11/14 05:35:31;;;;;;;8.48;4.47;;;;;;;;;;5113342;28;20028;-61
2022/11/14 05:38:01;;;;;;;12.50;5.43;;;;;;;;;;5113241;28;20043;-61
2022/11/14 05:40:27;;;;;;;11.45;5.05;;;;;;;;;;5095034;28;20494;-62
2022/11/14 05:42:56;;;;;;;12.52;4.78;;;;;;;;;;5112982;28;20396;-61
2022/11/14 05:45:23;;;;;;;11.52;5.55;;;;;;;;;;5103075;28;20013;-61
2022/11/14 05:47:52;;;;;;;11.25;4.97;;;;;;;;;;5105668;28;20024;-61
2022/11/14 05:50:19;;;;;;;13.35;4.75;;;;;;;;;;5113019;28;20399;-61
2022/11/14 05:52:45;;;;;;;15.60;5.68;;;;;;;;;;5113168;28;20042;-61
2022/11/14 05:55:12;;;;;;;8.18;4.50;;;;;;;;;;5113320;28;20084;-61
2022/11/14 05:57:38;;;;;;;9.15;4.40;;;;;;;;;;5112501;28;20357;-61
2022/11/14 06:00:05;;;;;;;9.93;5.10;;;;;;;;;;5113109;28;20019;-61
2022/11/14 06:02:31;;;;;;;15.13;4.97;;;;;;;;;;5112940;28;20438;-61
2022/11/14 06:04:57;;;;;;;13.40;5.45;;;;;;;;;;5113079;28;20030;-62
2022/11/14 06:07:23;;;;;;;14.35;5.38;;;;;;;;;;5112908;28;20019;-61
2022/11/14 06:09:50;;;;;;;11.68;5.05;;;;;;;;;;5094632;28;20027;-61
2022/11/14 06:12:16;;;;;;;12.85;5.72;;;;;;;;;;5112457;28;20388;-61
2022/11/14 06:14:42;;;;;;;14.02;8.18;;;;;;;;;;5113063;28;20027;-62
2022/11/14 06:17:08;;;;;;;13.60;7.20;;;;;;;;;;5112515;28;20507;-61
2022/11/14 06:19:35;;;;;;;37.70;22.42;;;;;;;;;;5112671;28;20012;-61
2022/11/14 06:22:01;;;;;;;26.92;13.30;;;;;;;;;;5112926;28;20038;-61
2022/11/14 06:24:27;;;;;;;11.52;5.53;;;;;;;;;;5112426;28;20046;-61
2022/11/14 06:26:54;;;;;;;10.65;4.47;;;;;;;;;;5112315;28;20074;-61
2022/11/14 06:29:20;;;;;;;14.65;5.93;;;;;;;;;;5112668;28;20387;-61
2022/11/14 06:31:46;;;;;;;20.02;11.23;;;;;;;;;;5112536;28;20026;-61
2022/11/14 06:34:13;;;;;;;33.97;19.10;;;;;;;;;;5112694;28;20024;-62
2022/11/14 06:36:39;;;;;;;65.28;40.92;;;;;;;;;;5112392;28;20047;-61
2022/11/14 06:39:05;;;;;;;11.35;6.63;;;;;;;;;;5112346;28;20026;-61
2022/11/14 06:41:31;;;;;;;11.07;6.43;;;;;;;;;;5112319;28;20028;-61
2022/11/14 06:43:58;;;;;;;13.75;6.05;;;;;;;;;;5112732;28;20020;-61
2022/11/14 06:46:24;;;;;;;10.80;4.80;;;;;;;;;;5076634;28;20030;-61
2022/11/14 06:48:51;;;;;;;10.00;4.93;;;;;;;;;;5111973;28;20030;-61
2022/11/14 06:51:18;;;;;;;10.38;5.22;;;;;;;;;;5112303;28;20027;-61
2022/11/14 06:53:44;;;;;;;16.55;4.95;;;;;;;;;;5112226;28;20023;-61
2022/11/14 06:56:12;;;;;;;14.38;4.93;;;;;;;;;;5111919;28;20549;-61
2022/11/14 06:58:40;;;;;;;14.15;5.25;;;;;;;;;;5112388;28;20028;-61
2022/11/14 07:01:10;;;;;;;13.18;5.38;;;;;;;;;;5112153;28;20020;-61
2022/11/14 07:03:36;;;;;;;11.05;5.78;;;;;;;;;;5112101;28;20018;-62
2022/11/14 07:06:04;;;;;;;13.77;5.13;;;;;;;;;;5094381;28;20028;-61
2022/11/14 07:08:30;;;;;;;9.00;5.22;;;;;;;;;;5111756;28;20026;-62
2022/11/14 07:11:04;;;;;;;10.25;5.38;;;;;;;;;;5111709;28;20030;-62
2022/11/14 07:13:30;;;;;;;14.07;5.47;;;;;;;;;;5109858;28;20038;-61
2022/11/14 07:15:57;;;;;;;14.35;5.53;;;;;;;;;;5096852;28;20496;-61
2022/11/14 07:18:23;;;;;;;8.38;5.07;;;;;;;;;;5112612;28;20072;-61
2022/11/14 07:20:49;;;;;;;10.88;5.45;;;;;;;;;;5111136;28;20031;-61
2022/11/14 07:23:16;;;;;;;12.50;5.72;;;;;;;;;;5100174;28;20024;-62
2022/11/14 07:25:42;;;;;;;11.32;5.10;;;;;;;;;;5090600;28;20022;-62
2022/11/14 07:28:08;;;;;;;9.98;5.85;;;;;;;;;;5091455;28;20092;-62
2022/11/14 07:30:34;;;;;;;11.93;5.45;;;;;;;;;;5100783;28;20016;-62
2022/11/14 07:33:01;;;;;;;17.50;7.93;;;;;;;;;;5091138;28;20032;-61
2022/11/14 07:35:27;;;;;;;9.75;5.07;;;;;;;;;;5130944;27;20023;-61
2022/11/14 07:38:00;;;;;;;11.35;5.43;;;;;;;;;;5125708;27;20064;-61
2022/11/14 07:40:26;;;;;;;12.45;5.60;;;;;;;;;;5085989;28;20028;-62
2022/11/14 07:42:57;;;;;;;12.48;6.00;;;;;;;;;;5111872;28;20020;-62
2022/11/14 07:45:23;;;;;;;12.02;5.28;;;;;;;;;;5110481;28;20028;-62
2022/11/14 07:47:53;;;;;;;14.95;6.43;;;;;;;;;;5107228;28;20028;-62
2022/11/14 07:50:19;;;;;;;14.05;5.53;;;;;;;;;;5102971;28;20031;-62
2022/11/14 07:52:49;;;;;;;12.15;5.60;;;;;;;;;;5103860;28;20031;-62
2022/11/14 07:55:16;;;;;;;10.18;5.13;;;;;;;;;;5094284;28;20034;-62
2022/11/14 07:57:42;;;;;;;12.82;5.68;;;;;;;;;;5112459;28;20042;-62
2022/11/14 08:00:09;;;;;;;10.52;5.32;;;;;;;;;;5113163;28;20024;-62
2022/11/14 08:02:36;;;;;;;12.93;5.50;;;;;;;;;;5097401;28;20024;-62
2022/11/14 08:05:02;;;;;;;10.38;5.90;;;;;;;;;;5113571;28;20522;-62
2022/11/14 08:07:28;;;;;;;12.45;5.78;;;;;;;;;;5114200;28;20023;-62
2022/11/14 08:09:55;;;;;;;11.27;5.05;;;;;;;;;;5095127;28;20027;-62
2022/11/14 08:12:21;;;;;;;10.23;5.57;;;;;;;;;;5093921;28;20012;-61
2022/11/14 08:14:47;;;;;;;11.40;5.50;;;;;;;;;;5094208;28;20038;-62
2022/11/14 08:17:14;;;;;;;10.35;5.60;;;;;;;;;;5108486;28;20526;-61
2022/11/14 08:19:40;;;;;;;15.95;5.82;;;;;;;;;;5114183;28;20024;-61
2022/11/14 08:22:06;;;;;;;10.95;5.75;;;;;;;;;;5111024;28;20024;-62
2022/11/14 08:24:33;;;;;;;12.93;5.47;;;;;;;;;;5100189;28;20026;-62
2022/11/14 08:26:59;;;;;;;9.88;5.13;;;;;;;;;;5111890;28;20032;-61
2022/11/14 08:29:25;;;;;;;16.10;6.00;;;;;;;;;;5098960;28;20016;-61
2022/11/14 08:31:52;;;;;;;15.50;6.63;;;;;;;;;;5102622;28;20058;-61
2022/11/14 08:34:19;;;;;;;13.77;5.53;;;;;;;;;;5093770;28;20016;-62
2022/11/14 08:36:46;;;;;;;10.93;5.55;;;;;;;;;;5102909;28;20159;-61
2022/11/14 08:39:12;;;;;;;9.68;5.18;;;;;;;;;;5094902;28;20028;-62
2022/11/14 08:41:38;;;;;;;17.33;5.53;;;;;;;;;;5105160;28;20036;-62
2022/11/14 08:44:05;;;;;;;11.95;5.60;;;;;;;;;;5109553;28;20028;-62
2022/11/14 08:46:31;;;;;;;9.57;5.20;;;;;;;;;;5110816;28;20024;-60
2022/11/14 08:48:57;;;;;;;10.48;5.47;;;;;;;;;;5108816;28;20415;-60
2022/11/14 08:51:24;;;;;;;9.13;5.22;;;;;;;;;;5092410;28;20024;-61
2022/11/14 08:53:51;;;;;;;13.68;5.45;;;;;;;;;;5105306;28;20034;-62
2022/11/14 08:56:17;;;;;;;10.18;5.00;;;;;;;;;;5103790;28;20035;-61
2022/11/14 08:58:43;;;;;;;15.80;5.18;;;;;;;;;;5090901;28;20024;-61
2022/11/14 09:01:10;;;;;;;15.13;5.13;;;;;;;;;;5107939;28;20035;-62
2022/11/14 09:03:36;;;;;;;12.23;5.25;;;;;;;;;;5112799;28;20041;-62
2022/11/14 09:06:03;;;;;;;14.55;6.00;;;;;;;;;;5112310;28;20030;-62
2022/11/14 09:08:29;;;;;;;14.00;5.57;;;;;;;;;;5113180;28;20023;-62
2022/11/14 09:10:59;;;;;;;13.25;5.70;;;;;;;;;;5112195;28;20027;-62
2022/11/14 09:13:26;;;;;;;13.55;5.25;;;;;;;;;;5112527;28;20480;-61
2022/11/14 09:15:55;;;;;;;10.30;5.40;;;;;;;;;;5112398;28;20020;-62
2022/11/14 09:18:21;;;;;;;8.18;5.18;;;;;;;;;;5112707;28;20498;-62
2022/11/14 09:20:47;;;;;;;15.68;5.00;;;;;;;;;;5105482;28;20028;-61
2022/11/14 09:23:14;;;;;;;7.97;4.90;;;;;;;;;;5102138;28;20032;-62
2022/11/14 09:25:40;;;;;;;8.45;4.80;;;;;;;;;;5127679;27;20341;-62
2022/11/14 09:28:07;;;;;;;9.88;4.80;;;;;;;;;;5124162;27;20049;-62
2022/11/14 09:30:34;;;;;;;9.10;4.72;;;;;;;;;;5111428;28;20101;-61
2022/11/14 09:33:02;;;;;;;12.20;5.50;;;;;;;;;;5105144;28;20032;-62
2022/11/14 09:35:28;;;;;;;16.90;5.25;;;;;;;;;;5120326;27;20035;-62
2022/11/14 09:38:01;;;;;;;9.13;4.93;;;;;;;;;;5094034;28;20477;-62
2022/11/14 09:40:28;;;;;;;11.60;5.20;;;;;;;;;;5110931;28;20109;-62
2022/11/14 09:42:55;;;;;;;9.23;5.55;;;;;;;;;;5112084;28;20039;-62
2022/11/14 09:45:24;;;;;;;12.60;5.20;;;;;;;;;;5110065;28;20039;-62
2022/11/14 09:47:52;;;;;;;9.07;5.22;;;;;;;;;;5113268;27;20038;-62
2022/11/14 09:50:22;;;;;;;8.88;5.63;;;;;;;;;;5094250;28;20026;-60
2022/11/14 09:52:58;;;;;;;15.40;5.60;;;;;;;;;;5102743;28;20020;-63
2022/11/14 09:55:32;;;;;;;11.77;5.18;;;;;;;;;;5095872;28;20022;-63
2022/11/14 09:58:00;;;;;;;16.60;5.28;;;;;;;;;;5110377;28;20755;-65
2022/11/14 10:00:28;;;;;;;12.38;5.35;;;;;;;;;;5111006;28;20028;-61
2022/11/14 10:03:01;;;;;;;7.72;4.93;;;;;;;;;;5110812;28;20027;-62
2022/11/14 10:05:28;;;;;;;7.38;4.88;;;;;;;;;;5110868;28;20022;-62
2022/11/14 10:08:09;;;;;;;12.00;5.13;;;;;;;;;;5110891;28;20030;-61
2022/11/14 10:10:35;;;;;;;;;;;;;;;;;;5111373;28;20020;-62
2022/11/14 10:13:13;;;;;;;9.63;5.13;;;;;;;;;;5110951;28;19911;-62
2022/11/14 10:15:45;;;;;;;10.20;4.95;;;;;;;;;;5112202;27;20397;-62
2022/11/14 10:18:12;;;;;;;8.70;4.72;;;;;;;;;;5108017;28;20030;-62
2022/11/14 10:20:38;;;;;;;7.97;4.50;;;;;;;;;;5110507;28;20467;-61
2022/11/14 10:23:19;;;;;;;18.85;12.45;;;;;;;;;;5109405;28;20016;-61
2022/11/14 10:26:00;;;;;;;13.70;8.05;;;;;;;;;;5110049;28;20028;-59
2022/11/14 10:28:33;;;;;;;5.82;4.22;;;;;;;;;;5096088;28;20028;-60
2022/11/14 10:31:05;;;;;;;8.00;4.03;;;;;;;;;;5104383;27;20030;-61
2022/11/14 10:33:31;;;;;;;4.53;3.75;;;;;;;;;;5130204;27;20019;-61
2022/11/14 10:36:03;;;;;;;7.82;4.20;;;;;;;;;;5121878;27;20032;-61
2022/11/14 10:38:43;;;;;;;26.85;16.48;;;;;;;;;;5110511;28;20496;-59
2022/11/14 10:41:09;;;;;;;10.18;5.55;;;;;;;;;;5110617;28;20028;-61
2022/11/14 10:43:36;;;;;;;7.03;3.35;;;;;;;;;;5112060;28;20430;-61
2022/11/14 10:46:05;;;;;;;5.05;3.50;;;;;;;;;;5099188;28;20396;-59
2022/11/14 10:48:35;;;;;;;4.90;3.50;;;;;;;;;;5108794;28;20036;-60
2022/11/14 10:51:13;;;;;;;6.78;3.40;;;;;;;;;;5110666;28;20395;-61
2022/11/14 10:53:42;;;;;;;9.43;3.53;;;;;;;;;;5104099;28;20038;-61
2022/11/14 10:56:11;;;;;;;8.27;3.67;;;;;;;;;;5094473;28;20026;-60
2022/11/14 10:58:38;;;;;;;4.93;3.60;;;;;;;;;;5122212;28;20023;-61
2022/11/14 11:01:23;;;;;;;5.15;3.25;;;;;;;;;;5131165;28;20034;-61
2022/11/14 11:03:49;;;;;;;3.80;2.90;;;;;;;;;;5096372;28;20038;-61
2022/11/14 11:06:24;;;;;;;5.30;3.47;;;;;;;;;;5092139;28;20391;-60
2022/11/14 11:11:38;;;;;;;6.47;3.17;;;;;;;;;;5095740;28;20024;-61
2022/11/14 11:14:05;;;;;;;4.72;3.10;;;;;;;;;;5114551;28;20015;-61
2022/11/14 11:16:31;;;;;;;3.60;2.58;;;;;;;;;;5095945;28;20039;-61
2022/11/14 11:19:14;;;;;;;3.67;2.42;;;;;;;;;;5114539;28;20030;-61
2022/11/14 11:21:48;;;;;;;2.80;2.45;;;;;;;;;;5113902;28;20016;-61
2022/11/14 11:24:30;;;;;;;3.78;2.55;;;;;;;;;;5111655;28;20016;-61
2022/11/14 11:27:14;;;;;;;3.33;2.83;;;;;;;;;;5095628;28;20024;-61
2022/11/14 11:29:40;;;;;;;6.32;2.63;;;;;;;;;;5113259;28;20026;-60
2022/11/14 11:32:08;;;;;;;2.58;2.30;;;;;;;;;;5095093;28;20081;-61
2022/11/14 11:34:35;;;;;;;3.60;2.30;;;;;;;;;;5113286;28;20019;-61
2022/11/14 11:37:11;;;;;;;3.25;2.55;;;;;;;;;;5113568;28;20055;-62
2022/11/14 11:39:42;;;;;;;2.97;2.60;;;;;;;;;;5114159;28;20028;-61
2022/11/14 11:42:13;;;;;;;2.65;2.45;;;;;;;;;;5114240;28;20030;-61
2022/11/14 11:44:44;;;;;;;3.75;2.53;;;;;;;;;;5114203;28;20037;-61
2022/11/14 11:47:15;;;;;;;4.10;2.50;;;;;;;;;;5112928;28;20080;-63
2022/11/14 11:49:52;;;;;;;2.55;2.30;;;;;;;;;;5113644;28;20030;-66
2022/11/14 11:52:33;;;;;;;3.17;2.55;;;;;;;;;;5114006;28;20027;-66
2022/11/14 11:55:09;;;;;;;2.25;2.03;;;;;;;;;;5113811;28;20028;-65
2022/11/14 11:57:38;;;;;;;3.17;2.20;;;;;;;;;;5113861;28;20031;-63
2022/11/14 12:00:14;;;;;;;2.60;2.40;;;;;;;;;;5113822;28;20043;-62
2022/11/14 12:02:43;;;;;;;3.72;2.60;;;;;;;;;;5114166;28;20036;-63
2022/11/14 12:05:13;;;;;;;3.03;2.20;;;;;;;;;;5113738;28;20029;-62
2022/11/14 12:07:59;;;;;;;2.72;2.00;;;;;;;;;;5113735;28;20054;-62
2022/11/14 12:10:28;;;;;;;2.30;2.10;;;;;;;;;;5095508;28;20514;-62
2022/11/14 12:12:57;;;;;;;2.65;2.20;;;;;;;;;;5113582;28;20030;-62
2022/11/14 12:15:31;;;;;;;4.90;2.65;;;;;;;;;;5113174;28;20023;-62
2022/11/14 12:18:04;;;;;;;21.17;10.40;;;;;;;;;;5095714;28;20038;-62
2022/11/14 12:20:33;;;;;;;2.92;1.75;;;;;;;;;;5094962;28;20022;-64
2022/11/14 12:23:02;;;;;;;2.60;1.77;;;;;;;;;;5113772;28;20088;-65
2022/11/14 12:25:35;;;;;;;4.43;2.08;;;;;;;;;;5113940;28;20044;-62
2022/11/14 12:28:03;;;;;;;3.78;2.40;;;;;;;;;;5113532;28;20039;-62
2022/11/14 12:30:30;;;;;;;2.35;1.75;;;;;;;;;;5113017;28;20027;-62
2022/11/14 12:33:08;;;;;;;1.85;1.65;;;;;;;;;;5113578;28;20038;-62
2022/11/14 12:35:36;;;;;;;1.40;1.30;;;;;;;;;;5097893;27;20042;-60
2022/11/14 12:38:04;;;;;;;3.47;2.20;;;;;;;;;;5104108;28;20508;-61
2022/11/14 12:40:40;;;;;;;1.70;1.42;;;;;;;;;;5105485;27;20064;-62
2022/11/14 12:43:26;;;;;;;4.50;1.50;;;;;;;;;;5113452;28;20023;-62
2022/11/14 12:45:53;;;;;;;2.97;1.83;;;;;;;;;;5107236;28;20042;-61
2022/11/14 12:48:25;;;;;;;1.90;1.50;;;;;;;;;;5111579;28;20019;-62
2022/11/14 12:50:52;;;;;;;2.08;1.38;;;;;;;;;;5112152;28;20032;-63
2022/11/14 12:53:36;;;;;;;3.17;1.65;;;;;;;;;;5126177;27;20502;-62
2022/11/14 12:56:02;;;;;;;1.63;1.35;;;;;;;;;;5133502;27;20023;-61
2022/11/14 12:58:35;;;;;;;2.30;1.50;;;;;;;;;;5132601;27;20035;-62
2022/11/14 13:01:11;;;;;;;2.70;2.20;;;;;;;;;;5124532;27;20034;-62
2022/11/14 13:03:38;;;;;;;1.58;1.45;;;;;;;;;;5107831;28;20035;-62
2022/11/14 13:06:08;;;;;;;1.85;1.45;;;;;;;;;;5095544;28;20040;-62
2022/11/14 13:08:35;;;;;;;1.35;1.25;;;;;;;;;;5094934;27;20031;-62
2022/11/14 13:21:44;;;;;;;4.30;3.00;;;;;;;;;;5128087;27;20027;-62
2022/11/14 13:22:40;;;;;;;1.52;1.13;;;;;;;;;;5108134;28;20466;-61
2022/11/14 13:25:20;;;;;;;3.45;1.23;;;;;;;;;;5091636;28;20016;-62
2022/11/14 13:27:47;;;;;;;1.20;1.10;;;;;;;;;;5072699;28;20065;-62
2022/11/14 13:30:13;;;;;;;1.23;1.13;;;;;;;;;;5111187;27;20418;-62
2022/11/14 13:32:45;;;;;;;1.75;1.10;;;;;;;;;;5091710;28;20023;-62
2022/11/14 13:35:15;;;;;;;1.73;1.20;;;;;;;;;;5114691;27;20031;-62
2022/11/14 13:37:53;;;;;;;2.15;1.30;;;;;;;;;;5132096;27;20047;-62
2022/11/14 13:40:43;;;;;;;2.78;1.60;;;;;;;;;;5118508;27;20034;-62
2022/11/14 13:43:15;;;;;;;2.88;1.38;;;;;;;;;;5008676;28;20056;-62
2022/11/14 13:46:00;;;;;;;3.80;1.00;;;;;;;;;;5007418;28;20431;-61
2022/11/14 13:48:41;;;;;;;2.00;1.42;;;;;;;;;;5011736;28;20049;-61
2022/11/14 13:51:07;;;;;;;;;;;;;;;;;;5009172;28;20030;-62
2022/11/14 13:53:34;;;;;;;1.63;1.30;;;;;;;;;;4996577;28;19910;-61
2022/11/14 13:56:00;;;;;;;2.22;1.30;;;;;;;;;;5027654;28;20548;-61
2022/11/14 13:58:39;;;;;;;2.92;1.05;;;;;;;;;;4993976;28;20038;-62
2022/11/14 14:01:08;;;;;;;1.83;1.10;;;;;;;;;;5004502;28;20037;-62
2022/11/14 14:03:49;;;;;;;2.65;1.80;;;;;;;;;;5007664;28;20024;-62
2022/11/14 14:06:36;;;;;;;1.63;1.30;;;;;;;;;;5012757;28;20503;-62
2022/11/14 14:09:09;;;;;;;2.65;1.50;;;;;;;;;;5005225;28;20026;-62
2022/11/14 14:11:45;;;;;;;1.30;1.20;;;;;;;;;;5024248;28;20037;-62
2022/11/14 14:14:25;;;;;;;5.32;2.80;;;;;;;;;;5021362;28;20030;-62
2022/11/14 14:16:56;;;;;;;8.10;4.47;;;;;;;;;;4999376;28;20038;-62
2022/11/14 14:19:23;;;;;;;3.60;1.83;;;;;;;;;;5019116;28;20400;-63
2022/11/14 14:21:49;;;;;;;1.60;1.30;;;;;;;;;;5105624;28;20047;-62
2022/11/14 14:24:25;;;;;;;3.22;1.50;;;;;;;;;;5083788;28;20019;-62
2022/11/14 14:27:10;;;;;;;5.93;3.38;;;;;;;;;;5120913;27;20023;-62
2022/11/14 14:29:36;;;;;;;2.22;1.17;;;;;;;;;;5123865;27;20023;-62
2022/11/14 14:32:21;;;;;;;1.67;1.08;;;;;;;;;;5112517;27;20038;-62
2022/11/14 14:34:47;;;;;;;1.08;0.98;;;;;;;;;;5131193;27;20494;-62
2022/11/14 14:37:31;;;;;;;2.92;1.33;;;;;;;;;;5131288;27;20410;-62
2022/11/14 14:39:59;;;;;;;5.28;3.33;;;;;;;;;;5131237;27;20019;-62
2022/11/14 14:42:26;;;;;;;2.47;1.52;;;;;;;;;;5121254;28;20403;-62
2022/11/14 14:44:53;;;;;;;2.22;1.38;;;;;;;;;;5115168;28;20026;-60
2022/11/14 14:47:28;;;;;;;2.45;1.42;;;;;;;;;;5117672;28;20023;-61
2022/11/14 14:49:55;;;;;;;2.75;1.30;;;;;;;;;;5117392;28;20027;-61
2022/11/14 14:52:21;;;;;;;1.65;1.40;;;;;;;;;;5117414;28;20026;-62
2022/11/14 14:54:55;;;;;;;1.60;1.45;;;;;;;;;;5117164;28;20030;-62
2022/11/14 14:57:21;;;;;;;2.72;1.70;;;;;;;;;;5117508;28;20514;-61